sensor_id;sensor_type;location;lat;lon;timestamp;P1;durP1;ratioP1;P2;durP2;ratioP2
70102;SDS011;57470;50.034;15.256;2023-11-19T00:00:50;8.20;;;3.07;;
70102;SDS011;57470;50.034;15.256;2023-11-19T00:03:16;6.97;;;3.03;;
70102;SDS011;57470;50.034;15.256;2023-11-19T00:05:42;5.55;;;2.20;;
70102;SDS011;57470;50.034;15.256;2023-11-19T00:08:09;6.03;;;2.53;;
70102;SDS011;57470;50.034;15.256;2023-11-19T00:10:35;5.97;;;2.50;;
70102;SDS011;57470;50.034;15.256;2023-11-19T00:13:00;5.78;;;2.55;;
70102;SDS011;57470;50.034;15.256;2023-11-19T00:15:28;6.88;;;2.65;;
70102;SDS011;57470;50.034;15.256;2023-11-19T00:17:57;7.53;;;3.38;;
70102;SDS011;57470;50.034;15.256;2023-11-19T00:20:22;11.97;;;4.10;;
70102;SDS011;57470;50.034;15.256;2023-11-19T00:22:48;11.82;;;3.63;;
70102;SDS011;57470;50.034;15.256;2023-11-19T00:25:19;12.00;;;3.55;;
70102;SDS011;57470;50.034;15.256;2023-11-19T00:27:46;9.35;;;3.47;;
70102;SDS011;57470;50.034;15.256;2023-11-19T00:30:12;7.77;;;3.23;;
70102;SDS011;57470;50.034;15.256;2023-11-19T00:32:38;26.25;;;9.27;;
70102;SDS011;57470;50.034;15.256;2023-11-19T00:35:07;10.53;;;3.20;;
70102;SDS011;57470;50.034;15.256;2023-11-19T00:37:35;9.93;;;4.30;;
70102;SDS011;57470;50.034;15.256;2023-11-19T00:40:00;9.50;;;4.88;;
70102;SDS011;57470;50.034;15.256;2023-11-19T00:42:26;8.32;;;4.80;;
70102;SDS011;57470;50.034;15.256;2023-11-19T00:44:51;20.07;;;10.57;;
70102;SDS011;57470;50.034;15.256;2023-11-19T00:47:18;48.88;;;19.27;;
70102;SDS011;57470;50.034;15.256;2023-11-19T00:49:45;16.50;;;9.25;;
70102;SDS011;57470;50.034;15.256;2023-11-19T00:52:14;16.45;;;8.77;;
70102;SDS011;57470;50.034;15.256;2023-11-19T00:54:40;9.73;;;3.50;;
70102;SDS011;57470;50.034;15.256;2023-11-19T00:57:06;8.35;;;3.38;;
70102;SDS011;57470;50.034;15.256;2023-11-19T00:59:31;8.67;;;4.30;;
70102;SDS011;57470;50.034;15.256;2023-11-19T01:01:57;6.55;;;2.42;;
70102;SDS011;57470;50.034;15.256;2023-11-19T01:04:24;8.82;;;3.00;;
70102;SDS011;57470;50.034;15.256;2023-11-19T01:06:49;10.90;;;3.83;;
70102;SDS011;57470;50.034;15.256;2023-11-19T01:09:15;6.65;;;2.72;;
70102;SDS011;57470;50.034;15.256;2023-11-19T01:11:41;6.37;;;2.73;;
70102;SDS011;57470;50.034;15.256;2023-11-19T01:14:06;6.20;;;2.20;;
70102;SDS011;57470;50.034;15.256;2023-11-19T01:16:31;7.40;;;2.57;;
70102;SDS011;57470;50.034;15.256;2023-11-19T01:18:57;7.03;;;1.87;;
70102;SDS011;57470;50.034;15.256;2023-11-19T01:21:22;4.60;;;1.80;;
70102;SDS011;57470;50.034;15.256;2023-11-19T01:23:48;7.30;;;2.47;;
70102;SDS011;57470;50.034;15.256;2023-11-19T01:26:13;6.33;;;1.70;;
70102;SDS011;57470;50.034;15.256;2023-11-19T01:28:39;5.00;;;1.75;;
70102;SDS011;57470;50.034;15.256;2023-11-19T01:31:08;4.00;;;1.87;;
70102;SDS011;57470;50.034;15.256;2023-11-19T01:33:35;7.53;;;1.85;;
70102;SDS011;57470;50.034;15.256;2023-11-19T01:36:01;6.00;;;2.40;;
70102;SDS011;57470;50.034;15.256;2023-11-19T01:38:27;3.87;;;1.17;;
70102;SDS011;57470;50.034;15.256;2023-11-19T01:40:55;4.47;;;1.70;;
70102;SDS011;57470;50.034;15.256;2023-11-19T01:43:35;3.72;;;1.25;;
70102;SDS011;57470;50.034;15.256;2023-11-19T01:46:05;5.50;;;1.98;;
70102;SDS011;57470;50.034;15.256;2023-11-19T01:48:32;2.58;;;0.73;;
70102;SDS011;57470;50.034;15.256;2023-11-19T01:50:58;4.90;;;1.70;;
70102;SDS011;57470;50.034;15.256;2023-11-19T01:53:25;4.68;;;1.52;;
70102;SDS011;57470;50.034;15.256;2023-11-19T01:55:51;5.63;;;1.63;;
70102;SDS011;57470;50.034;15.256;2023-11-19T01:58:17;4.95;;;1.35;;
70102;SDS011;57470;50.034;15.256;2023-11-19T02:00:44;3.58;;;1.23;;
70102;SDS011;57470;50.034;15.256;2023-11-19T02:03:11;2.70;;;0.65;;
70102;SDS011;57470;50.034;15.256;2023-11-19T02:05:37;4.93;;;1.63;;
70102;SDS011;57470;50.034;15.256;2023-11-19T02:08:03;4.55;;;1.23;;
70102;SDS011;57470;50.034;15.256;2023-11-19T02:10:29;2.33;;;0.70;;
70102;SDS011;57470;50.034;15.256;2023-11-19T02:12:56;5.43;;;1.67;;
70102;SDS011;57470;50.034;15.256;2023-11-19T02:15:22;3.95;;;1.55;;
70102;SDS011;57470;50.034;15.256;2023-11-19T02:17:50;2.30;;;0.77;;
70102;SDS011;57470;50.034;15.256;2023-11-19T02:20:16;5.18;;;1.25;;
70102;SDS011;57470;50.034;15.256;2023-11-19T02:22:45;5.28;;;1.60;;
70102;SDS011;57470;50.034;15.256;2023-11-19T02:25:14;4.32;;;1.70;;
70102;SDS011;57470;50.034;15.256;2023-11-19T02:28:01;3.60;;;1.30;;
70102;SDS011;57470;50.034;15.256;2023-11-19T02:30:28;6.32;;;1.25;;
70102;SDS011;57470;50.034;15.256;2023-11-19T02:32:54;5.43;;;1.25;;
70102;SDS011;57470;50.034;15.256;2023-11-19T02:35:26;5.32;;;1.50;;
70102;SDS011;57470;50.034;15.256;2023-11-19T02:37:51;5.28;;;1.30;;
70102;SDS011;57470;50.034;15.256;2023-11-19T02:40:17;4.27;;;1.13;;
70102;SDS011;57470;50.034;15.256;2023-11-19T02:42:43;4.28;;;1.42;;
70102;SDS011;57470;50.034;15.256;2023-11-19T02:45:09;3.55;;;1.38;;
70102;SDS011;57470;50.034;15.256;2023-11-19T02:47:40;4.88;;;2.13;;
70102;SDS011;57470;50.034;15.256;2023-11-19T02:50:08;5.68;;;1.85;;
70102;SDS011;57470;50.034;15.256;2023-11-19T02:52:43;4.45;;;1.83;;
70102;SDS011;57470;50.034;15.256;2023-11-19T02:55:11;4.75;;;1.45;;
70102;SDS011;57470;50.034;15.256;2023-11-19T02:57:38;3.22;;;1.42;;
70102;SDS011;57470;50.034;15.256;2023-11-19T03:00:20;11.38;;;1.92;;
70102;SDS011;57470;50.034;15.256;2023-11-19T03:03:01;6.72;;;2.45;;
70102;SDS011;57470;50.034;15.256;2023-11-19T03:05:46;4.47;;;1.40;;
70102;SDS011;57470;50.034;15.256;2023-11-19T03:08:14;4.97;;;1.38;;
70102;SDS011;57470;50.034;15.256;2023-11-19T03:10:42;4.10;;;1.63;;
70102;SDS011;57470;50.034;15.256;2023-11-19T03:13:11;3.15;;;1.27;;
70102;SDS011;57470;50.034;15.256;2023-11-19T03:15:45;4.38;;;1.17;;
70102;SDS011;57470;50.034;15.256;2023-11-19T03:18:12;4.93;;;2.17;;
70102;SDS011;57470;50.034;15.256;2023-11-19T03:20:38;6.20;;;2.97;;
70102;SDS011;57470;50.034;15.256;2023-11-19T03:23:05;7.22;;;1.98;;
70102;SDS011;57470;50.034;15.256;2023-11-19T03:25:32;6.35;;;1.25;;
70102;SDS011;57470;50.034;15.256;2023-11-19T03:28:00;5.70;;;1.60;;
70102;SDS011;57470;50.034;15.256;2023-11-19T03:30:30;4.65;;;1.52;;
70102;SDS011;57470;50.034;15.256;2023-11-19T03:32:58;3.92;;;1.23;;
70102;SDS011;57470;50.034;15.256;2023-11-19T03:35:28;3.95;;;1.40;;
70102;SDS011;57470;50.034;15.256;2023-11-19T03:37:56;5.53;;;1.63;;
70102;SDS011;57470;50.034;15.256;2023-11-19T03:40:22;3.88;;;1.30;;
70102;SDS011;57470;50.034;15.256;2023-11-19T03:42:50;6.40;;;2.05;;
70102;SDS011;57470;50.034;15.256;2023-11-19T03:45:17;4.80;;;1.05;;
70102;SDS011;57470;50.034;15.256;2023-11-19T03:47:42;6.93;;;2.50;;
70102;SDS011;57470;50.034;15.256;2023-11-19T03:50:08;6.23;;;1.30;;
70102;SDS011;57470;50.034;15.256;2023-11-19T03:52:34;3.88;;;1.17;;
70102;SDS011;57470;50.034;15.256;2023-11-19T03:55:00;6.40;;;2.35;;
70102;SDS011;57470;50.034;15.256;2023-11-19T03:57:27;2.23;;;0.63;;
70102;SDS011;57470;50.034;15.256;2023-11-19T03:59:53;6.53;;;1.65;;
70102;SDS011;57470;50.034;15.256;2023-11-19T04:02:19;4.07;;;1.52;;
70102;SDS011;57470;50.034;15.256;2023-11-19T04:04:45;4.23;;;1.50;;
70102;SDS011;57470;50.034;15.256;2023-11-19T04:07:10;3.67;;;1.70;;
70102;SDS011;57470;50.034;15.256;2023-11-19T04:09:36;4.13;;;1.02;;
70102;SDS011;57470;50.034;15.256;2023-11-19T04:12:02;3.75;;;1.10;;
70102;SDS011;57470;50.034;15.256;2023-11-19T04:14:28;3.03;;;1.15;;
70102;SDS011;57470;50.034;15.256;2023-11-19T04:16:54;5.05;;;1.92;;
70102;SDS011;57470;50.034;15.256;2023-11-19T04:19:19;4.97;;;2.03;;
70102;SDS011;57470;50.034;15.256;2023-11-19T04:21:45;5.40;;;1.87;;
70102;SDS011;57470;50.034;15.256;2023-11-19T04:24:11;3.13;;;1.02;;
70102;SDS011;57470;50.034;15.256;2023-11-19T04:26:42;3.53;;;1.00;;
70102;SDS011;57470;50.034;15.256;2023-11-19T04:29:11;7.78;;;2.33;;
70102;SDS011;57470;50.034;15.256;2023-11-19T04:31:38;5.38;;;1.45;;
70102;SDS011;57470;50.034;15.256;2023-11-19T04:34:04;3.57;;;1.47;;
70102;SDS011;57470;50.034;15.256;2023-11-19T04:36:31;3.58;;;0.93;;
70102;SDS011;57470;50.034;15.256;2023-11-19T04:38:58;5.30;;;1.75;;
70102;SDS011;57470;50.034;15.256;2023-11-19T04:41:24;3.75;;;1.13;;
70102;SDS011;57470;50.034;15.256;2023-11-19T04:43:50;4.90;;;1.57;;
70102;SDS011;57470;50.034;15.256;2023-11-19T04:46:15;4.18;;;1.40;;
70102;SDS011;57470;50.034;15.256;2023-11-19T04:48:41;8.32;;;3.33;;
70102;SDS011;57470;50.034;15.256;2023-11-19T04:51:06;4.40;;;1.90;;
70102;SDS011;57470;50.034;15.256;2023-11-19T04:53:34;5.40;;;1.75;;
70102;SDS011;57470;50.034;15.256;2023-11-19T04:55:59;6.33;;;2.70;;
70102;SDS011;57470;50.034;15.256;2023-11-19T04:58:25;3.92;;;1.67;;
70102;SDS011;57470;50.034;15.256;2023-11-19T05:00:50;4.25;;;1.77;;
70102;SDS011;57470;50.034;15.256;2023-11-19T05:03:15;6.70;;;1.87;;
70102;SDS011;57470;50.034;15.256;2023-11-19T05:05:41;4.47;;;1.37;;
70102;SDS011;57470;50.034;15.256;2023-11-19T05:08:06;2.80;;;1.10;;
70102;SDS011;57470;50.034;15.256;2023-11-19T05:10:32;3.00;;;0.80;;
70102;SDS011;57470;50.034;15.256;2023-11-19T05:12:57;12.32;;;2.08;;
70102;SDS011;57470;50.034;15.256;2023-11-19T05:15:22;2.95;;;0.90;;
70102;SDS011;57470;50.034;15.256;2023-11-19T05:17:49;3.43;;;1.33;;
70102;SDS011;57470;50.034;15.256;2023-11-19T05:20:14;5.50;;;1.38;;
70102;SDS011;57470;50.034;15.256;2023-11-19T05:22:40;4.13;;;0.90;;
70102;SDS011;57470;50.034;15.256;2023-11-19T05:25:06;4.05;;;1.45;;
70102;SDS011;57470;50.034;15.256;2023-11-19T05:27:32;2.47;;;0.88;;
70102;SDS011;57470;50.034;15.256;2023-11-19T05:29:57;3.80;;;1.67;;
70102;SDS011;57470;50.034;15.256;2023-11-19T05:32:23;2.70;;;0.93;;
70102;SDS011;57470;50.034;15.256;2023-11-19T05:34:48;5.10;;;1.07;;
70102;SDS011;57470;50.034;15.256;2023-11-19T05:37:13;3.87;;;0.83;;
70102;SDS011;57470;50.034;15.256;2023-11-19T05:39:39;4.03;;;1.50;;
70102;SDS011;57470;50.034;15.256;2023-11-19T05:42:04;10.57;;;2.07;;
70102;SDS011;57470;50.034;15.256;2023-11-19T05:44:30;4.20;;;0.60;;
70102;SDS011;57470;50.034;15.256;2023-11-19T05:46:56;3.58;;;0.98;;
70102;SDS011;57470;50.034;15.256;2023-11-19T05:49:21;5.17;;;1.53;;
70102;SDS011;57470;50.034;15.256;2023-11-19T05:51:46;2.67;;;0.80;;
70102;SDS011;57470;50.034;15.256;2023-11-19T05:54:12;2.73;;;0.80;;
70102;SDS011;57470;50.034;15.256;2023-11-19T05:56:38;4.05;;;1.73;;
70102;SDS011;57470;50.034;15.256;2023-11-19T05:59:04;4.97;;;1.53;;
70102;SDS011;57470;50.034;15.256;2023-11-19T06:01:34;4.25;;;1.23;;
70102;SDS011;57470;50.034;15.256;2023-11-19T06:03:59;3.88;;;1.30;;
70102;SDS011;57470;50.034;15.256;2023-11-19T06:06:26;2.45;;;0.82;;
70102;SDS011;57470;50.034;15.256;2023-11-19T06:08:52;3.90;;;0.90;;
70102;SDS011;57470;50.034;15.256;2023-11-19T06:11:17;3.50;;;1.05;;
70102;SDS011;57470;50.034;15.256;2023-11-19T06:13:45;2.67;;;0.73;;
70102;SDS011;57470;50.034;15.256;2023-11-19T06:16:12;5.03;;;0.90;;
70102;SDS011;57470;50.034;15.256;2023-11-19T06:18:37;4.77;;;1.40;;
70102;SDS011;57470;50.034;15.256;2023-11-19T06:21:02;2.53;;;0.60;;
70102;SDS011;57470;50.034;15.256;2023-11-19T06:23:28;2.80;;;0.77;;
70102;SDS011;57470;50.034;15.256;2023-11-19T06:25:53;2.73;;;0.80;;
70102;SDS011;57470;50.034;15.256;2023-11-19T06:28:19;3.67;;;1.37;;
70102;SDS011;57470;50.034;15.256;2023-11-19T06:30:44;3.95;;;1.00;;
70102;SDS011;57470;50.034;15.256;2023-11-19T06:33:12;2.40;;;0.50;;
70102;SDS011;57470;50.034;15.256;2023-11-19T06:35:39;2.92;;;0.70;;
70102;SDS011;57470;50.034;15.256;2023-11-19T06:38:04;2.70;;;0.43;;
70102;SDS011;57470;50.034;15.256;2023-11-19T06:40:30;3.28;;;0.55;;
70102;SDS011;57470;50.034;15.256;2023-11-19T06:42:56;1.70;;;0.50;;
70102;SDS011;57470;50.034;15.256;2023-11-19T06:45:22;2.20;;;0.52;;
70102;SDS011;57470;50.034;15.256;2023-11-19T06:47:47;5.03;;;1.70;;
70102;SDS011;57470;50.034;15.256;2023-11-19T06:50:12;2.43;;;0.70;;
70102;SDS011;57470;50.034;15.256;2023-11-19T06:52:38;2.92;;;1.10;;
70102;SDS011;57470;50.034;15.256;2023-11-19T06:55:04;10.03;;;4.03;;
70102;SDS011;57470;50.034;15.256;2023-11-19T06:57:29;7.50;;;2.50;;
70102;SDS011;57470;50.034;15.256;2023-11-19T06:59:57;4.80;;;1.25;;
70102;SDS011;57470;50.034;15.256;2023-11-19T07:02:22;4.68;;;1.60;;
70102;SDS011;57470;50.034;15.256;2023-11-19T07:04:48;18.33;;;8.27;;
70102;SDS011;57470;50.034;15.256;2023-11-19T07:07:13;30.03;;;13.30;;
70102;SDS011;57470;50.034;15.256;2023-11-19T07:09:40;7.22;;;3.08;;
70102;SDS011;57470;50.034;15.256;2023-11-19T07:12:05;3.90;;;1.30;;
70102;SDS011;57470;50.034;15.256;2023-11-19T07:14:31;4.18;;;2.03;;
70102;SDS011;57470;50.034;15.256;2023-11-19T07:16:57;3.03;;;0.83;;
70102;SDS011;57470;50.034;15.256;2023-11-19T07:19:22;4.33;;;1.23;;
70102;SDS011;57470;50.034;15.256;2023-11-19T07:21:47;9.43;;;1.63;;
70102;SDS011;57470;50.034;15.256;2023-11-19T07:24:13;4.55;;;1.60;;
70102;SDS011;57470;50.034;15.256;2023-11-19T07:26:45;5.80;;;2.63;;
70102;SDS011;57470;50.034;15.256;2023-11-19T07:29:12;4.30;;;1.52;;
70102;SDS011;57470;50.034;15.256;2023-11-19T07:31:43;3.65;;;1.60;;
70102;SDS011;57470;50.034;15.256;2023-11-19T07:34:09;3.17;;;0.90;;
70102;SDS011;57470;50.034;15.256;2023-11-19T07:36:35;2.13;;;0.60;;
70102;SDS011;57470;50.034;15.256;2023-11-19T07:39:01;5.70;;;2.33;;
70102;SDS011;57470;50.034;15.256;2023-11-19T07:41:30;2.97;;;1.15;;
70102;SDS011;57470;50.034;15.256;2023-11-19T07:43:57;2.27;;;0.63;;
70102;SDS011;57470;50.034;15.256;2023-11-19T07:46:22;1.88;;;0.38;;
70102;SDS011;57470;50.034;15.256;2023-11-19T07:48:47;5.00;;;1.48;;
70102;SDS011;57470;50.034;15.256;2023-11-19T07:51:13;2.50;;;0.70;;
70102;SDS011;57470;50.034;15.256;2023-11-19T07:53:39;6.32;;;2.47;;
70102;SDS011;57470;50.034;15.256;2023-11-19T07:56:06;3.58;;;1.17;;
70102;SDS011;57470;50.034;15.256;2023-11-19T07:58:32;3.83;;;1.07;;
70102;SDS011;57470;50.034;15.256;2023-11-19T08:00:57;1.90;;;0.50;;
70102;SDS011;57470;50.034;15.256;2023-11-19T08:03:22;2.85;;;0.80;;
70102;SDS011;57470;50.034;15.256;2023-11-19T08:05:49;3.00;;;1.00;;
70102;SDS011;57470;50.034;15.256;2023-11-19T08:08:15;3.25;;;0.85;;
70102;SDS011;57470;50.034;15.256;2023-11-19T08:11:00;3.95;;;1.02;;
70102;SDS011;57470;50.034;15.256;2023-11-19T08:13:25;7.77;;;3.03;;
70102;SDS011;57470;50.034;15.256;2023-11-19T08:15:51;5.03;;;1.20;;
70102;SDS011;57470;50.034;15.256;2023-11-19T08:18:17;4.63;;;1.30;;
70102;SDS011;57470;50.034;15.256;2023-11-19T08:20:43;2.72;;;0.68;;
70102;SDS011;57470;50.034;15.256;2023-11-19T08:23:09;6.28;;;2.38;;
70102;SDS011;57470;50.034;15.256;2023-11-19T08:25:35;2.83;;;0.67;;
70102;SDS011;57470;50.034;15.256;2023-11-19T08:28:01;3.60;;;1.00;;
70102;SDS011;57470;50.034;15.256;2023-11-19T08:30:28;15.55;;;6.88;;
70102;SDS011;57470;50.034;15.256;2023-11-19T08:32:54;9.23;;;3.50;;
70102;SDS011;57470;50.034;15.256;2023-11-19T08:35:19;10.23;;;3.90;;
70102;SDS011;57470;50.034;15.256;2023-11-19T08:37:44;3.23;;;1.47;;
70102;SDS011;57470;50.034;15.256;2023-11-19T08:40:11;4.85;;;1.80;;
70102;SDS011;57470;50.034;15.256;2023-11-19T08:42:37;4.53;;;2.00;;
70102;SDS011;57470;50.034;15.256;2023-11-19T08:45:04;3.55;;;0.68;;
70102;SDS011;57470;50.034;15.256;2023-11-19T08:47:30;3.17;;;0.73;;
70102;SDS011;57470;50.034;15.256;2023-11-19T08:49:55;2.22;;;0.60;;
70102;SDS011;57470;50.034;15.256;2023-11-19T08:52:20;3.60;;;1.27;;
70102;SDS011;57470;50.034;15.256;2023-11-19T08:54:46;3.63;;;1.10;;
70102;SDS011;57470;50.034;15.256;2023-11-19T08:57:11;4.73;;;0.50;;
70102;SDS011;57470;50.034;15.256;2023-11-19T08:59:37;2.60;;;0.63;;
70102;SDS011;57470;50.034;15.256;2023-11-19T09:02:05;3.35;;;1.05;;
70102;SDS011;57470;50.034;15.256;2023-11-19T09:04:31;3.15;;;0.88;;
70102;SDS011;57470;50.034;15.256;2023-11-19T09:06:57;3.17;;;0.77;;
70102;SDS011;57470;50.034;15.256;2023-11-19T09:09:23;3.85;;;0.85;;
70102;SDS011;57470;50.034;15.256;2023-11-19T09:11:48;3.87;;;1.17;;
70102;SDS011;57470;50.034;15.256;2023-11-19T09:14:14;2.97;;;0.70;;
70102;SDS011;57470;50.034;15.256;2023-11-19T09:16:39;3.85;;;1.10;;
70102;SDS011;57470;50.034;15.256;2023-11-19T09:19:04;2.43;;;0.67;;
70102;SDS011;57470;50.034;15.256;2023-11-19T09:21:30;2.57;;;0.80;;
70102;SDS011;57470;50.034;15.256;2023-11-19T09:23:55;3.40;;;0.80;;
70102;SDS011;57470;50.034;15.256;2023-11-19T09:26:21;3.50;;;1.07;;
70102;SDS011;57470;50.034;15.256;2023-11-19T09:28:46;3.23;;;0.90;;
70102;SDS011;57470;50.034;15.256;2023-11-19T09:31:15;3.60;;;1.20;;
70102;SDS011;57470;50.034;15.256;2023-11-19T09:33:41;5.93;;;1.27;;
70102;SDS011;57470;50.034;15.256;2023-11-19T09:36:07;3.63;;;1.27;;
70102;SDS011;57470;50.034;15.256;2023-11-19T09:38:33;3.15;;;0.95;;
70102;SDS011;57470;50.034;15.256;2023-11-19T09:40:59;3.40;;;1.13;;
70102;SDS011;57470;50.034;15.256;2023-11-19T09:43:33;2.35;;;0.60;;
70102;SDS011;57470;50.034;15.256;2023-11-19T09:45:58;3.53;;;1.33;;
70102;SDS011;57470;50.034;15.256;2023-11-19T09:48:32;5.32;;;1.60;;
70102;SDS011;57470;50.034;15.256;2023-11-19T09:50:58;3.25;;;0.95;;
70102;SDS011;57470;50.034;15.256;2023-11-19T09:53:24;3.73;;;1.27;;
70102;SDS011;57470;50.034;15.256;2023-11-19T09:55:49;4.45;;;1.00;;
70102;SDS011;57470;50.034;15.256;2023-11-19T09:58:16;7.10;;;1.48;;
70102;SDS011;57470;50.034;15.256;2023-11-19T10:00:42;3.47;;;0.98;;
70102;SDS011;57470;50.034;15.256;2023-11-19T10:03:08;4.43;;;0.98;;
70102;SDS011;57470;50.034;15.256;2023-11-19T10:05:38;3.13;;;1.10;;
70102;SDS011;57470;50.034;15.256;2023-11-19T10:08:04;3.45;;;0.88;;
70102;SDS011;57470;50.034;15.256;2023-11-19T10:10:30;11.52;;;4.97;;
70102;SDS011;57470;50.034;15.256;2023-11-19T10:12:55;20.67;;;8.67;;
70102;SDS011;57470;50.034;15.256;2023-11-19T10:15:21;12.83;;;4.93;;
70102;SDS011;57470;50.034;15.256;2023-11-19T10:17:49;6.25;;;3.30;;
70102;SDS011;57470;50.034;15.256;2023-11-19T10:20:15;6.07;;;2.08;;
70102;SDS011;57470;50.034;15.256;2023-11-19T10:22:40;12.30;;;4.73;;
70102;SDS011;57470;50.034;15.256;2023-11-19T10:25:27;9.40;;;3.33;;
70102;SDS011;57470;50.034;15.256;2023-11-19T10:27:53;8.20;;;3.53;;
70102;SDS011;57470;50.034;15.256;2023-11-19T10:30:23;4.60;;;2.03;;
70102;SDS011;57470;50.034;15.256;2023-11-19T10:33:32;4.78;;;1.95;;
70102;SDS011;57470;50.034;15.256;2023-11-19T10:35:58;8.80;;;2.83;;
70102;SDS011;57470;50.034;15.256;2023-11-19T10:38:24;4.90;;;1.73;;
70102;SDS011;57470;50.034;15.256;2023-11-19T10:40:51;5.80;;;1.75;;
70102;SDS011;57470;50.034;15.256;2023-11-19T10:43:18;3.60;;;0.95;;
70102;SDS011;57470;50.034;15.256;2023-11-19T10:45:47;4.82;;;1.98;;
70102;SDS011;57470;50.034;15.256;2023-11-19T10:48:13;5.80;;;1.33;;
70102;SDS011;57470;50.034;15.256;2023-11-19T10:50:39;3.03;;;1.03;;
70102;SDS011;57470;50.034;15.256;2023-11-19T10:53:07;4.80;;;1.65;;
70102;SDS011;57470;50.034;15.256;2023-11-19T10:55:34;4.53;;;0.93;;
70102;SDS011;57470;50.034;15.256;2023-11-19T10:58:03;4.35;;;1.52;;
70102;SDS011;57470;50.034;15.256;2023-11-19T11:03:10;7.53;;;1.55;;
70102;SDS011;57470;50.034;15.256;2023-11-19T11:05:41;4.43;;;1.35;;
70102;SDS011;57470;50.034;15.256;2023-11-19T11:08:07;5.25;;;1.63;;
70102;SDS011;57470;50.034;15.256;2023-11-19T11:10:35;4.80;;;1.77;;
70102;SDS011;57470;50.034;15.256;2023-11-19T11:13:16;3.77;;;1.27;;
70102;SDS011;57470;50.034;15.256;2023-11-19T11:15:43;6.20;;;1.70;;
70102;SDS011;57470;50.034;15.256;2023-11-19T11:18:11;5.18;;;1.00;;
70102;SDS011;57470;50.034;15.256;2023-11-19T11:20:38;6.88;;;2.25;;
70102;SDS011;57470;50.034;15.256;2023-11-19T11:23:15;6.30;;;2.22;;
70102;SDS011;57470;50.034;15.256;2023-11-19T11:39:46;6.57;;;1.87;;
70102;SDS011;57470;50.034;15.256;2023-11-19T11:45:06;4.93;;;1.15;;
70102;SDS011;57470;50.034;15.256;2023-11-19T11:50:15;4.75;;;1.20;;
70102;SDS011;57470;50.034;15.256;2023-11-19T11:55:37;7.22;;;1.90;;
70102;SDS011;57470;50.034;15.256;2023-11-19T11:58:21;4.53;;;1.35;;
70102;SDS011;57470;50.034;15.256;2023-11-19T12:00:50;3.70;;;1.27;;
70102;SDS011;57470;50.034;15.256;2023-11-19T12:03:18;2.70;;;0.70;;
70102;SDS011;57470;50.034;15.256;2023-11-19T12:05:47;4.23;;;1.03;;
70102;SDS011;57470;50.034;15.256;2023-11-19T12:08:13;8.80;;;1.58;;
70102;SDS011;57470;50.034;15.256;2023-11-19T12:10:47;2.75;;;0.55;;
70102;SDS011;57470;50.034;15.256;2023-11-19T12:13:15;4.13;;;1.17;;
70102;SDS011;57470;50.034;15.256;2023-11-19T12:18:27;5.27;;;1.47;;
70102;SDS011;57470;50.034;15.256;2023-11-19T12:20:54;5.22;;;1.55;;
70102;SDS011;57470;50.034;15.256;2023-11-19T12:23:20;4.55;;;1.58;;
70102;SDS011;57470;50.034;15.256;2023-11-19T12:25:46;5.03;;;1.67;;
70102;SDS011;57470;50.034;15.256;2023-11-19T12:28:12;5.40;;;2.00;;
70102;SDS011;57470;50.034;15.256;2023-11-19T12:30:38;6.15;;;1.15;;
70102;SDS011;57470;50.034;15.256;2023-11-19T12:33:10;6.33;;;1.60;;
70102;SDS011;57470;50.034;15.256;2023-11-19T12:35:45;7.18;;;1.83;;
70102;SDS011;57470;50.034;15.256;2023-11-19T12:38:23;6.75;;;1.52;;
70102;SDS011;57470;50.034;15.256;2023-11-19T12:41:10;5.07;;;1.58;;
70102;SDS011;57470;50.034;15.256;2023-11-19T12:43:42;8.00;;;2.00;;
70102;SDS011;57470;50.034;15.256;2023-11-19T12:46:20;10.65;;;2.28;;
70102;SDS011;57470;50.034;15.256;2023-11-19T12:48:50;8.23;;;3.40;;
70102;SDS011;57470;50.034;15.256;2023-11-19T12:51:16;8.53;;;2.73;;
70102;SDS011;57470;50.034;15.256;2023-11-19T12:53:49;7.60;;;2.38;;
70102;SDS011;57470;50.034;15.256;2023-11-19T12:56:17;8.23;;;3.42;;
70102;SDS011;57470;50.034;15.256;2023-11-19T12:58:42;9.40;;;3.10;;
70102;SDS011;57470;50.034;15.256;2023-11-19T13:01:08;10.97;;;2.70;;
70102;SDS011;57470;50.034;15.256;2023-11-19T13:03:37;5.50;;;1.83;;
70102;SDS011;57470;50.034;15.256;2023-11-19T13:06:10;6.38;;;2.10;;
70102;SDS011;57470;50.034;15.256;2023-11-19T13:08:38;3.25;;;0.73;;
70102;SDS011;57470;50.034;15.256;2023-11-19T13:11:05;6.28;;;1.88;;
70102;SDS011;57470;50.034;15.256;2023-11-19T13:13:31;4.37;;;1.40;;
70102;SDS011;57470;50.034;15.256;2023-11-19T13:16:03;6.65;;;1.35;;
70102;SDS011;57470;50.034;15.256;2023-11-19T13:18:34;4.70;;;1.60;;
70102;SDS011;57470;50.034;15.256;2023-11-19T13:20:59;5.00;;;1.15;;
70102;SDS011;57470;50.034;15.256;2023-11-19T13:23:25;3.07;;;0.87;;
70102;SDS011;57470;50.034;15.256;2023-11-19T13:25:51;5.57;;;1.73;;
70102;SDS011;57470;50.034;15.256;2023-11-19T13:28:16;6.37;;;1.63;;
70102;SDS011;57470;50.034;15.256;2023-11-19T13:30:41;6.00;;;1.43;;
70102;SDS011;57470;50.034;15.256;2023-11-19T13:33:07;4.17;;;1.33;;
70102;SDS011;57470;50.034;15.256;2023-11-19T13:35:32;5.03;;;1.43;;
70102;SDS011;57470;50.034;15.256;2023-11-19T13:37:57;4.27;;;1.10;;
70102;SDS011;57470;50.034;15.256;2023-11-19T13:40:23;3.67;;;1.10;;
70102;SDS011;57470;50.034;15.256;2023-11-19T13:42:51;4.97;;;1.65;;
70102;SDS011;57470;50.034;15.256;2023-11-19T13:45:17;4.07;;;1.50;;
70102;SDS011;57470;50.034;15.256;2023-11-19T13:47:43;4.45;;;1.20;;
70102;SDS011;57470;50.034;15.256;2023-11-19T13:50:11;4.22;;;1.27;;
70102;SDS011;57470;50.034;15.256;2023-11-19T13:52:40;5.35;;;1.42;;
70102;SDS011;57470;50.034;15.256;2023-11-19T13:55:08;4.67;;;1.23;;
70102;SDS011;57470;50.034;15.256;2023-11-19T13:57:35;4.15;;;1.10;;
70102;SDS011;57470;50.034;15.256;2023-11-19T14:00:04;4.85;;;1.50;;
70102;SDS011;57470;50.034;15.256;2023-11-19T14:02:31;4.38;;;1.00;;
70102;SDS011;57470;50.034;15.256;2023-11-19T14:04:57;8.98;;;1.20;;
70102;SDS011;57470;50.034;15.256;2023-11-19T14:07:22;3.83;;;1.03;;
70102;SDS011;57470;50.034;15.256;2023-11-19T14:09:48;4.57;;;1.40;;
70102;SDS011;57470;50.034;15.256;2023-11-19T14:12:16;4.83;;;1.37;;
70102;SDS011;57470;50.034;15.256;2023-11-19T14:14:42;3.20;;;1.20;;
70102;SDS011;57470;50.034;15.256;2023-11-19T14:17:08;6.75;;;1.75;;
70102;SDS011;57470;50.034;15.256;2023-11-19T14:19:35;7.30;;;1.80;;
70102;SDS011;57470;50.034;15.256;2023-11-19T14:22:01;4.97;;;1.87;;
70102;SDS011;57470;50.034;15.256;2023-11-19T14:24:26;4.90;;;1.60;;
70102;SDS011;57470;50.034;15.256;2023-11-19T14:26:52;4.67;;;1.63;;
70102;SDS011;57470;50.034;15.256;2023-11-19T14:29:17;5.47;;;2.07;;
70102;SDS011;57470;50.034;15.256;2023-11-19T14:31:43;9.15;;;2.75;;
70102;SDS011;57470;50.034;15.256;2023-11-19T14:34:08;5.83;;;2.00;;
70102;SDS011;57470;50.034;15.256;2023-11-19T14:36:34;5.40;;;2.03;;
70102;SDS011;57470;50.034;15.256;2023-11-19T14:39:00;4.72;;;1.50;;
70102;SDS011;57470;50.034;15.256;2023-11-19T14:41:25;5.13;;;1.57;;
70102;SDS011;57470;50.034;15.256;2023-11-19T14:43:50;5.90;;;2.00;;
70102;SDS011;57470;50.034;15.256;2023-11-19T14:46:16;6.27;;;2.10;;
70102;SDS011;57470;50.034;15.256;2023-11-19T14:48:41;5.00;;;1.20;;
70102;SDS011;57470;50.034;15.256;2023-11-19T14:51:07;5.90;;;1.80;;
70102;SDS011;57470;50.034;15.256;2023-11-19T14:53:32;9.30;;;1.80;;
70102;SDS011;57470;50.034;15.256;2023-11-19T14:55:58;5.57;;;1.50;;
70102;SDS011;57470;50.034;15.256;2023-11-19T14:58:23;4.60;;;1.90;;
70102;SDS011;57470;50.034;15.256;2023-11-19T15:00:50;4.22;;;1.55;;